createdAt,value
2023-03-27T00:01:28.793Z,11.69
2023-03-27T00:03:56.119Z,11.77
2023-03-27T00:06:23.231Z,11.89
2023-03-27T00:08:52.281Z,11.55
2023-03-27T00:11:21.491Z,11.40
2023-03-27T00:13:51.384Z,11.25
2023-03-27T00:16:18.959Z,11.12
2023-03-27T00:18:46.092Z,11.05
2023-03-27T00:21:14.908Z,11.00
2023-03-27T00:23:42.625Z,10.91
2023-03-27T00:26:10.328Z,10.82
2023-03-27T00:28:37.673Z,10.64
2023-03-27T00:31:10.197Z,10.54
2023-03-27T00:33:37.807Z,10.60
2023-03-27T00:36:06.783Z,10.56
2023-03-27T00:38:34.066Z,10.52
2023-03-27T00:41:01.777Z,10.49
2023-03-27T00:43:31.155Z,10.43
2023-03-27T00:46:03.368Z,10.36
2023-03-27T00:48:35.614Z,10.24
2023-03-27T00:51:05.448Z,10.14
2023-03-27T00:53:33.350Z,10.40
2023-03-27T00:56:03.843Z,10.36
2023-03-27T00:58:36.655Z,10.20
2023-03-27T01:01:03.693Z,10.13
2023-03-27T01:03:33.126Z,10.21
2023-03-27T01:06:02.108Z,10.27
2023-03-27T01:08:31.087Z,10.53
2023-03-27T01:11:12.391Z,10.40
2023-03-27T01:14:01.189Z,10.20
2023-03-27T01:16:36.982Z,9.99
2023-03-27T01:19:30.283Z,9.90
2023-03-27T01:22:35.556Z,9.97
2023-03-27T01:25:50.137Z,9.83
2023-03-27T01:28:26.575Z,9.88
2023-03-27T01:30:59.390Z,9.95
2023-03-27T01:33:54.278Z,10.01
2023-03-27T01:36:45.693Z,9.88
2023-03-27T01:39:45.722Z,9.76
2023-03-27T01:42:22.594Z,9.70
2023-03-27T01:44:54.476Z,9.70
2023-03-27T01:47:43.343Z,9.83
2023-03-27T01:50:19.757Z,9.78
2023-03-27T01:52:53.680Z,9.62
2023-03-27T01:55:27.047Z,9.48
2023-03-27T01:57:59.831Z,9.61
2023-03-27T02:00:52.280Z,9.56
2023-03-27T02:03:20.958Z,9.51
2023-03-27T02:05:54.061Z,9.71
2023-03-27T02:08:25.161Z,9.58
2023-03-27T02:10:58.579Z,9.46
2023-03-27T02:13:32.108Z,9.42
2023-03-27T02:16:01.816Z,9.39
2023-03-27T02:18:33.361Z,9.34
2023-03-27T02:21:00.807Z,9.37
2023-03-27T02:23:28.390Z,9.49
2023-03-27T02:25:57.452Z,9.49
2023-03-27T02:28:47.677Z,9.53
2023-03-27T02:31:34.606Z,9.59
2023-03-27T02:34:35.134Z,9.82
2023-03-27T02:37:14.808Z,9.86
2023-03-27T02:39:49.947Z,9.95
2023-03-27T02:42:24.250Z,9.84
2023-03-27T02:44:57.070Z,9.94
2023-03-27T02:47:31.185Z,9.99
2023-03-27T02:50:03.223Z,10.19
2023-03-27T02:52:37.221Z,10.32
2023-03-27T02:55:12.474Z,10.65
2023-03-27T02:57:52.078Z,10.26
2023-03-27T03:00:22.704Z,10.19
2023-03-27T03:02:57.310Z,10.22
2023-03-27T03:05:26.971Z,10.09
2023-03-27T03:07:54.481Z,10.13
2023-03-27T03:10:21.502Z,10.09
2023-03-27T03:12:50.018Z,10.11
2023-03-27T03:15:20.026Z,10.23
2023-03-27T03:17:47.432Z,10.30
2023-03-27T03:20:14.702Z,10.26
2023-03-27T03:22:42.429Z,10.34
2023-03-27T03:25:10.544Z,10.43
2023-03-27T03:27:37.754Z,10.47
2023-03-27T03:30:08.484Z,10.51
2023-03-27T03:32:35.418Z,10.55
2023-03-27T03:35:02.606Z,10.71
2023-03-27T03:37:29.444Z,11.12
2023-03-27T03:39:56.314Z,10.92
2023-03-27T03:42:24.122Z,11.00
2023-03-27T03:44:51.664Z,11.16
2023-03-27T03:47:20.414Z,10.95
2023-03-27T03:49:48.167Z,10.77
2023-03-27T03:52:15.571Z,10.77
2023-03-27T03:54:43.219Z,10.75
2023-03-27T03:57:12.222Z,10.68
2023-03-27T03:59:39.453Z,10.66
2023-03-27T04:02:07.838Z,10.60
2023-03-27T04:04:36.958Z,10.69
2023-03-27T04:07:04.929Z,10.72
2023-03-27T04:09:32.089Z,10.83
2023-03-27T04:11:59.138Z,10.92
2023-03-27T04:14:26.638Z,10.91
2023-03-27T04:16:54.425Z,10.97
2023-03-27T04:19:22.622Z,11.34
2023-03-27T04:21:51.268Z,11.24
2023-03-27T04:24:19.387Z,11.13
2023-03-27T04:26:47.655Z,11.06
2023-03-27T04:29:15.187Z,11.12
2023-03-27T04:31:42.089Z,11.18
2023-03-27T04:34:09.146Z,11.06
2023-03-27T04:36:37.197Z,10.93
2023-03-27T04:39:05.868Z,11.02
2023-03-27T04:41:34.301Z,11.11
2023-03-27T04:44:01.527Z,11.06
2023-03-27T04:46:28.723Z,10.97
2023-03-27T04:48:56.856Z,11.15
2023-03-27T04:51:23.986Z,11.14
2023-03-27T04:53:51.727Z,11.14
2023-03-27T04:56:21.521Z,11.14
2023-03-27T04:58:50.990Z,11.09
2023-03-27T05:01:18.632Z,10.98
2023-03-27T05:03:46.407Z,10.95
2023-03-27T05:06:13.902Z,11.01
2023-03-27T05:08:40.887Z,11.11
2023-03-27T05:11:08.326Z,11.17
2023-03-27T05:13:39.382Z,11.15
2023-03-27T05:16:07.384Z,11.25
2023-03-27T05:18:35.837Z,11.27
2023-03-27T05:21:03.660Z,11.24
2023-03-27T05:23:31.054Z,11.13
2023-03-27T05:26:00.052Z,11.10
2023-03-27T05:28:28.761Z,11.20
2023-03-27T05:30:57.777Z,11.22
2023-03-27T05:33:26.056Z,11.26
2023-03-27T05:35:53.771Z,11.20
2023-03-27T05:38:21.313Z,11.18
2023-03-27T05:40:48.216Z,11.26
2023-03-27T05:43:16.432Z,11.40
2023-03-27T05:45:45.591Z,11.41
2023-03-27T05:48:14.978Z,11.46
2023-03-27T05:50:43.583Z,11.31
2023-03-27T05:53:12.049Z,11.19
2023-03-27T05:55:40.274Z,11.43
2023-03-27T05:58:07.487Z,11.48
2023-03-27T06:00:35.575Z,11.52
2023-03-27T06:03:04.271Z,11.50
2023-03-27T06:05:33.858Z,11.58
2023-03-27T06:08:02.394Z,11.61
2023-03-27T06:10:31.177Z,11.58
2023-03-27T06:13:04.939Z,11.52
2023-03-27T06:15:33.427Z,11.54
2023-03-27T06:18:01.686Z,11.69
2023-03-27T06:20:29.705Z,11.84
2023-03-27T06:23:01.369Z,11.94
2023-03-27T06:25:30.436Z,12.00
2023-03-27T06:27:57.755Z,11.99
2023-03-27T06:30:26.204Z,12.05
2023-03-27T06:32:56.387Z,12.20
2023-03-27T06:35:25.258Z,12.29
2023-03-27T06:37:53.237Z,12.35
2023-03-27T06:40:23.749Z,12.37
2023-03-27T06:42:53.160Z,12.61
2023-03-27T06:45:20.865Z,12.93
2023-03-27T06:47:54.780Z,12.80
2023-03-27T06:50:23.692Z,12.60
2023-03-27T06:52:51.152Z,12.54
2023-03-27T06:55:20.064Z,12.58
2023-03-27T06:57:50.507Z,12.65
2023-03-27T07:00:20.162Z,12.60
2023-03-27T07:02:47.337Z,12.60
2023-03-27T07:05:15.114Z,12.56
2023-03-27T07:07:45.730Z,12.29
2023-03-27T07:10:14.132Z,12.32
2023-03-27T07:12:45.732Z,12.35
2023-03-27T07:15:14.734Z,12.42
2023-03-27T07:17:48.716Z,12.50
2023-03-27T07:20:16.263Z,12.37
2023-03-27T07:22:44.888Z,12.39
2023-03-27T07:25:11.681Z,12.49
2023-03-27T07:27:38.765Z,12.54
2023-03-27T07:30:10.120Z,12.54
2023-03-27T07:32:43.058Z,12.47
2023-03-27T07:35:10.832Z,12.45
2023-03-27T07:37:39.095Z,12.32
2023-03-27T07:40:10.151Z,12.10
2023-03-27T07:42:40.293Z,12.14
2023-03-27T07:45:11.615Z,12.34
2023-03-27T07:47:44.150Z,12.42
2023-03-27T07:50:13.392Z,12.49
2023-03-27T07:52:42.505Z,12.71
2023-03-27T07:55:13.485Z,12.83
2023-03-27T07:57:57.998Z,12.77
2023-03-27T08:00:28.398Z,12.80
2023-03-27T08:03:05.969Z,12.94
2023-03-27T08:05:33.923Z,13.05
2023-03-27T08:08:05.620Z,13.18
2023-03-27T08:10:33.672Z,13.01
2023-03-27T08:13:01.896Z,13.01
2023-03-27T08:15:28.683Z,13.18
2023-03-27T08:17:59.531Z,13.16
2023-03-27T08:20:26.490Z,13.51
2023-03-27T08:22:53.565Z,13.42
2023-03-27T08:25:22.081Z,13.66
2023-03-27T08:27:51.141Z,13.95
2023-03-27T08:30:19.249Z,13.77
2023-03-27T08:32:46.887Z,14.66
2023-03-27T08:35:17.133Z,15.22
2023-03-27T08:37:44.379Z,16.25
2023-03-27T08:40:19.459Z,16.80
2023-03-27T08:42:53.530Z,16.83
2023-03-27T08:45:26.401Z,16.95
2023-03-27T08:48:01.123Z,16.32
2023-03-27T08:50:36.527Z,16.74
2023-03-27T08:53:11.926Z,17.84
2023-03-27T08:55:40.300Z,18.37
2023-03-27T08:58:18.796Z,18.31
2023-03-27T09:00:49.100Z,18.15
2023-03-27T09:03:23.889Z,19.18
2023-03-27T09:05:59.307Z,19.70
2023-03-27T09:08:43.943Z,20.18
2023-03-27T09:11:26.864Z,20.03
2023-03-27T09:13:53.979Z,20.07
2023-03-27T09:16:28.673Z,19.77
2023-03-27T09:19:03.686Z,19.75
2023-03-27T09:21:41.134Z,19.35
2023-03-27T09:24:15.729Z,19.77
2023-03-27T09:26:43.359Z,20.07
2023-03-27T09:29:20.483Z,20.16
2023-03-27T09:31:49.364Z,19.63
2023-03-27T09:34:26.962Z,19.77
2023-03-27T09:36:58.310Z,20.43
2023-03-27T09:39:30.347Z,20.66
2023-03-27T09:42:07.184Z,20.98
2023-03-27T09:44:40.564Z,20.81
2023-03-27T09:47:15.762Z,20.88
2023-03-27T09:49:48.846Z,20.67
2023-03-27T09:52:35.269Z,20.33
2023-03-27T09:55:02.507Z,19.92
2023-03-27T09:57:31.867Z,19.88
2023-03-27T10:00:01.496Z,19.77
2023-03-27T10:02:31.140Z,19.01
2023-03-27T10:05:00.737Z,19.24
2023-03-27T10:07:29.302Z,19.68
2023-03-27T10:10:07.125Z,19.85
2023-03-27T10:12:37.517Z,19.57
2023-03-27T10:15:06.945Z,19.94
2023-03-27T10:17:38.527Z,20.02
2023-03-27T10:20:13.071Z,20.45
2023-03-27T10:22:44.090Z,20.39
2023-03-27T10:25:21.237Z,20.00
2023-03-27T10:27:51.163Z,20.23
2023-03-27T10:30:29.570Z,19.96
2023-03-27T10:32:56.918Z,20.13
2023-03-27T10:35:27.175Z,20.32
2023-03-27T10:37:56.276Z,20.43
2023-03-27T10:40:26.750Z,20.23
2023-03-27T10:42:57.699Z,20.88
2023-03-27T10:47:55.343Z,21.31
2023-03-27T10:50:32.814Z,21.50
2023-03-27T10:53:12.685Z,21.70
2023-03-27T10:55:56.594Z,21.21
2023-03-27T10:58:31.472Z,21.01
2023-03-27T11:01:05.578Z,20.31
2023-03-27T11:03:40.278Z,19.86
2023-03-27T11:06:13.971Z,18.32
2023-03-27T11:08:52.348Z,18.12
2023-03-27T11:11:26.463Z,18.00
2023-03-27T11:13:58.773Z,18.66
2023-03-27T11:16:33.655Z,19.17
2023-03-27T11:19:25.216Z,18.97
2023-03-27T11:21:55.053Z,18.74
2023-03-27T11:24:34.140Z,18.59
2023-03-27T11:27:06.797Z,19.19
2023-03-27T11:29:40.100Z,20.02
2023-03-27T11:32:20.461Z,19.52
2023-03-27T11:34:54.343Z,19.33
2023-03-27T11:37:29.777Z,19.71
2023-03-27T11:40:03.400Z,19.70
2023-03-27T11:42:36.293Z,19.28
2023-03-27T11:45:03.421Z,19.10
2023-03-27T11:47:48.626Z,19.15
2023-03-27T11:50:26.347Z,19.03
2023-03-27T11:53:08.851Z,19.36
2023-03-27T11:55:47.085Z,20.04
2023-03-27T11:58:25.697Z,20.47
2023-03-27T12:01:05.624Z,21.63
2023-03-27T12:04:20.847Z,22.74
2023-03-27T12:06:55.119Z,23.35
2023-03-27T12:09:39.762Z,22.50
2023-03-27T12:12:27.131Z,21.00
2023-03-27T12:15:06.362Z,19.97
2023-03-27T12:17:48.375Z,20.18
2023-03-27T12:20:55.584Z,20.28
2023-03-27T12:23:31.711Z,20.38
2023-03-27T12:26:16.350Z,19.98
2023-03-27T12:28:58.242Z,19.72
2023-03-27T12:31:45.284Z,19.73
2023-03-27T12:34:28.451Z,19.59
2023-03-27T12:36:59.352Z,19.41
2023-03-27T12:39:27.866Z,19.25
2023-03-27T12:42:12.572Z,19.20
2023-03-27T12:45:05.679Z,18.75
2023-03-27T12:47:35.338Z,18.68
2023-03-27T12:50:17.186Z,18.15
2023-03-27T12:52:50.970Z,18.87
2023-03-27T12:55:33.291Z,18.84
2023-03-27T12:58:02.041Z,19.24
2023-03-27T13:00:33.349Z,19.55
2023-03-27T13:03:45.884Z,18.67
2023-03-27T13:06:22.370Z,18.43
2023-03-27T13:09:09.767Z,19.04
2023-03-27T13:11:48.435Z,18.91
2023-03-27T13:14:46.174Z,19.31
2023-03-27T13:17:42.637Z,20.17
2023-03-27T13:20:22.885Z,20.51
2023-03-27T13:23:16.165Z,21.13
2023-03-27T13:26:08.209Z,22.10
2023-03-27T13:28:38.919Z,22.45
2023-03-27T13:31:07.399Z,21.95
2023-03-27T13:33:47.764Z,21.04
2023-03-27T13:36:21.857Z,19.73
2023-03-27T13:39:14.542Z,19.09
2023-03-27T13:41:54.667Z,19.65
2023-03-27T13:44:33.093Z,20.09
2023-03-27T13:47:16.163Z,19.38
2023-03-27T13:50:08.545Z,18.80
2023-03-27T13:53:09.017Z,18.87
2023-03-27T13:55:57.063Z,19.55
2023-03-27T13:58:47.676Z,19.83
2023-03-27T14:01:34.529Z,19.90
2023-03-27T14:04:29.687Z,20.22
2023-03-27T14:07:44.191Z,20.16
2023-03-27T14:10:25.261Z,19.88
2023-03-27T14:13:09.115Z,20.56
2023-03-27T14:15:50.073Z,21.00
2023-03-27T14:18:54.011Z,21.81
2023-03-27T14:21:35.598Z,22.43
2023-03-27T14:24:19.120Z,21.91
2023-03-27T14:26:50.041Z,21.37
2023-03-27T14:29:17.169Z,21.55
2023-03-27T14:31:45.732Z,21.63
2023-03-27T14:34:19.475Z,21.29
2023-03-27T14:36:46.437Z,20.78
2023-03-27T14:39:16.125Z,20.59
2023-03-27T14:41:57.533Z,20.33
2023-03-27T14:44:27.226Z,19.46
2023-03-27T14:47:01.706Z,19.07
2023-03-27T14:49:34.766Z,19.03
2023-03-27T14:52:05.690Z,19.15
2023-03-27T14:54:44.624Z,19.18
2023-03-27T14:57:25.060Z,19.21
2023-03-27T14:59:54.130Z,19.05
2023-03-27T15:02:26.010Z,18.75
2023-03-27T15:04:54.940Z,19.01
2023-03-27T15:07:24.443Z,19.31
2023-03-27T15:10:01.918Z,19.59
2023-03-27T15:12:32.631Z,20.24
2023-03-27T15:14:59.623Z,20.88
2023-03-27T15:17:28.888Z,21.10
2023-03-27T15:20:01.845Z,21.06
2023-03-27T15:22:35.336Z,20.21
2023-03-27T15:25:07.914Z,19.78
2023-03-27T15:27:42.950Z,19.43
2023-03-27T15:30:24.531Z,19.20
2023-03-27T15:32:55.213Z,19.42
2023-03-27T15:35:29.646Z,19.25
2023-03-27T15:37:59.471Z,19.80
2023-03-27T15:40:32.844Z,20.51
2023-03-27T15:43:23.677Z,21.13
2023-03-27T15:46:13.788Z,21.49
2023-03-27T15:48:43.557Z,21.51
2023-03-27T15:51:13.103Z,21.79
2023-03-27T15:53:42.763Z,21.97
2023-03-27T15:56:20.951Z,21.82
2023-03-27T15:58:53.314Z,21.34
2023-03-27T16:01:23.774Z,21.15
2023-03-27T16:03:51.733Z,20.79
2023-03-27T16:06:29.343Z,20.24
2023-03-27T16:08:57.210Z,19.30
2023-03-27T16:11:38.506Z,19.07
2023-03-27T16:14:21.822Z,18.87
2023-03-27T16:16:48.732Z,18.80
2023-03-27T16:19:16.867Z,19.32
2023-03-27T16:21:55.598Z,19.56
2023-03-27T16:24:23.169Z,19.77
2023-03-27T16:26:51.684Z,19.72
2023-03-27T16:29:22.120Z,19.32
2023-03-27T16:31:50.053Z,19.44
2023-03-27T16:34:22.207Z,19.54
2023-03-27T16:36:52.059Z,19.79
2023-03-27T16:39:19.976Z,20.03
2023-03-27T16:41:49.090Z,19.85
2023-03-27T16:44:16.089Z,19.81
2023-03-27T16:46:46.438Z,19.33
2023-03-27T16:49:14.245Z,18.92
2023-03-27T16:51:41.124Z,18.88
2023-03-27T16:54:09.196Z,18.99
2023-03-27T16:56:37.937Z,18.86
2023-03-27T16:59:05.544Z,18.59
2023-03-27T17:01:32.525Z,18.81
2023-03-27T17:04:01.261Z,19.05
2023-03-27T17:06:28.414Z,19.13
2023-03-27T17:08:55.758Z,19.01
2023-03-27T17:11:23.723Z,18.88
2023-03-27T17:13:52.241Z,19.06
2023-03-27T17:16:19.509Z,19.39
2023-03-27T17:18:48.233Z,19.35
2023-03-27T17:21:17.641Z,19.54
2023-03-27T17:23:44.732Z,19.48
2023-03-27T17:26:13.530Z,19.64
2023-03-27T17:28:43.530Z,19.75
2023-03-27T17:31:11.649Z,19.49
2023-03-27T17:33:39.092Z,19.33
2023-03-27T17:36:13.090Z,18.98
2023-03-27T17:38:42.061Z,18.72
2023-03-27T17:41:10.442Z,18.47
2023-03-27T17:43:37.903Z,18.25
2023-03-27T17:46:06.150Z,18.29
2023-03-27T17:48:33.666Z,18.23
2023-03-27T17:51:09.012Z,18.09
2023-03-27T17:53:39.136Z,18.01
2023-03-27T17:56:09.971Z,17.76
2023-03-27T17:58:37.165Z,17.63
2023-03-27T18:01:16.791Z,17.60
2023-03-27T18:03:44.173Z,17.44
2023-03-27T18:06:11.688Z,17.44
2023-03-27T18:08:38.630Z,17.47
2023-03-27T18:11:11.200Z,17.38
2023-03-27T18:13:39.356Z,17.32
2023-03-27T18:16:08.283Z,17.21
2023-03-27T18:18:36.227Z,16.98
2023-03-27T18:21:04.627Z,16.83
2023-03-27T18:23:32.797Z,16.63
2023-03-27T18:26:03.473Z,16.48
2023-03-27T18:28:32.184Z,16.35
2023-03-27T18:31:00.432Z,16.26
2023-03-27T18:33:27.624Z,16.14
2023-03-27T18:35:57.554Z,16.07
2023-03-27T18:38:26.114Z,15.95
2023-03-27T18:40:55.179Z,15.91
2023-03-27T18:43:22.205Z,15.81
2023-03-27T18:45:58.037Z,15.71
2023-03-27T18:48:27.602Z,15.62
2023-03-27T18:50:57.960Z,15.54
2023-03-27T18:53:27.976Z,15.46
2023-03-27T18:55:55.507Z,15.48
2023-03-27T18:58:25.541Z,15.41
2023-03-27T19:00:53.483Z,15.30
2023-03-27T19:03:25.362Z,15.23
2023-03-27T19:05:53.387Z,15.18
2023-03-27T19:08:21.902Z,15.24
2023-03-27T19:10:49.201Z,15.22
2023-03-27T19:13:16.177Z,15.07
2023-03-27T19:15:44.821Z,14.96
2023-03-27T19:18:12.614Z,14.88
2023-03-27T19:20:42.695Z,14.91
2023-03-27T19:23:09.628Z,14.90
2023-03-27T19:25:37.264Z,14.82
2023-03-27T19:28:06.289Z,14.77
2023-03-27T19:30:33.791Z,14.70
2023-03-27T19:33:00.730Z,14.72
2023-03-27T19:35:28.330Z,14.73
2023-03-27T19:37:57.668Z,14.69
2023-03-27T19:40:24.844Z,14.65
2023-03-27T19:42:52.740Z,14.67
2023-03-27T19:45:19.778Z,14.65
2023-03-27T19:47:47.772Z,14.79
2023-03-27T19:50:14.678Z,14.74
2023-03-27T19:52:42.383Z,14.83
2023-03-27T19:55:11.229Z,14.79
2023-03-27T19:57:40.675Z,14.69
2023-03-27T20:00:09.342Z,14.73
2023-03-27T20:02:37.658Z,14.68
2023-03-27T20:05:05.937Z,14.73
2023-03-27T20:07:34.957Z,14.74
2023-03-27T20:10:02.479Z,14.69
2023-03-27T20:12:33.140Z,14.66
2023-03-27T20:15:11.068Z,14.67
2023-03-27T20:17:39.511Z,14.78
2023-03-27T20:20:07.996Z,14.70
2023-03-27T20:22:40.735Z,14.61
2023-03-27T20:25:14.069Z,14.62
2023-03-27T20:27:43.382Z,14.71
2023-03-27T20:30:11.042Z,14.67
2023-03-27T20:32:37.876Z,14.57
2023-03-27T20:35:16.502Z,14.68
2023-03-27T20:37:50.758Z,14.70
2023-03-27T20:40:17.912Z,14.66
2023-03-27T20:42:46.734Z,14.66
2023-03-27T20:45:14.798Z,14.73
2023-03-27T20:47:41.900Z,14.68
2023-03-27T20:50:10.431Z,14.70
2023-03-27T20:52:38.607Z,14.70
2023-03-27T20:55:06.579Z,14.82
2023-03-27T20:57:34.561Z,14.61
2023-03-27T21:00:04.900Z,14.77
2023-03-27T21:02:33.287Z,14.32
2023-03-27T21:05:00.267Z,14.64
2023-03-27T21:07:27.849Z,14.68
2023-03-27T21:09:55.260Z,14.79
2023-03-27T21:12:22.161Z,14.75
2023-03-27T21:14:50.498Z,14.76
2023-03-27T21:17:20.535Z,14.68
2023-03-27T21:19:47.923Z,14.75
2023-03-27T21:22:16.872Z,14.68
2023-03-27T21:24:45.761Z,14.73
2023-03-27T21:27:13.286Z,14.81
2023-03-27T21:29:42.165Z,14.57
2023-03-27T21:32:09.470Z,14.61
2023-03-27T21:34:38.102Z,14.61
2023-03-27T21:37:05.316Z,14.57
2023-03-27T21:39:32.317Z,14.69
2023-03-27T21:41:59.248Z,14.56
2023-03-27T21:44:26.061Z,14.47
2023-03-27T21:46:52.867Z,14.18
2023-03-27T21:49:19.974Z,14.39
2023-03-27T21:51:48.670Z,14.53
2023-03-27T21:54:16.321Z,14.58
2023-03-27T21:56:43.276Z,14.48
2023-03-27T21:59:10.356Z,14.59
2023-03-27T22:01:37.732Z,14.43
2023-03-27T22:04:04.685Z,14.39
2023-03-27T22:06:31.895Z,14.43
2023-03-27T22:09:01.132Z,14.32
2023-03-27T22:11:29.233Z,14.35
2023-03-27T22:13:56.364Z,14.44
2023-03-27T22:16:24.135Z,14.42
2023-03-27T22:18:51.642Z,14.63
2023-03-27T22:21:21.130Z,14.36
2023-03-27T22:23:49.173Z,14.48
2023-03-27T22:26:18.702Z,14.27
2023-03-27T22:28:46.654Z,14.49
2023-03-27T22:31:14.916Z,14.44
2023-03-27T22:33:42.399Z,14.49
2023-03-27T22:36:12.041Z,14.21
2023-03-27T22:38:40.537Z,14.25
2023-03-27T22:41:09.441Z,14.30
2023-03-27T22:43:39.397Z,14.41
2023-03-27T22:46:08.485Z,14.16
2023-03-27T22:48:36.971Z,14.31
2023-03-27T22:51:04.929Z,14.39
2023-03-27T22:53:32.645Z,14.38
2023-03-27T22:56:01.630Z,14.27
2023-03-27T22:58:30.548Z,14.32
2023-03-27T23:01:00.734Z,14.22
2023-03-27T23:03:28.510Z,14.52
2023-03-27T23:05:55.676Z,14.53
2023-03-27T23:08:25.799Z,14.51
2023-03-27T23:10:56.405Z,14.41
2023-03-27T23:13:23.522Z,14.36
2023-03-27T23:15:52.427Z,14.41
2023-03-27T23:18:22.090Z,14.25
2023-03-27T23:20:54.205Z,14.30
2023-03-27T23:23:21.095Z,14.42
2023-03-27T23:25:48.420Z,14.34
2023-03-27T23:28:15.904Z,14.30
2023-03-27T23:30:43.097Z,14.40
2023-03-27T23:33:10.513Z,14.55
2023-03-27T23:35:40.718Z,14.53
2023-03-27T23:38:07.937Z,14.61
2023-03-27T23:40:35.779Z,14.56
2023-03-27T23:43:02.932Z,14.65
2023-03-27T23:45:29.915Z,14.55
2023-03-27T23:47:57.231Z,14.20
2023-03-27T23:50:24.121Z,14.07
2023-03-27T23:52:52.709Z,14.34
2023-03-27T23:55:19.853Z,14.41
2023-03-27T23:57:46.757Z,14.21
